Time;durP1;ratioP1;P1;durP2;ratioP2;P2;SDS_P1;SDS_P2;PMS_P1;PMS_P2;Temp;Humidity;BMP_temperature;BMP_pressure;BME280_temperature;BME280_humidity;BME280_pressure;Samples;Min_cycle;Max_cycle;Signal;HPM_P1;HPM_P2
2023/12/07 00:00:06;;;;;;;16.02;9.98;;;3.40;99.90;;;;;;4996175;28;20053;-79
2023/12/07 00:02:31;;;;;;;16.67;10.43;;;3.20;99.90;;;;;;4978794;28;20038;-79
2023/12/07 00:04:57;;;;;;;16.27;9.82;;;3.40;99.90;;;;;;4979194;28;20121;-79
2023/12/07 00:07:22;;;;;;;16.92;10.27;;;3.30;99.90;;;;;;4978063;28;20046;-79
2023/12/07 00:09:48;;;;;;;17.10;10.02;;;3.40;99.90;;;;;;4994605;28;20549;-79
2023/12/07 00:12:13;;;;;;;18.38;10.98;;;3.40;99.90;;;;;;4995757;28;20046;-79
2023/12/07 00:14:39;;;;;;;18.48;11.02;;;3.30;99.90;;;;;;4994518;28;20100;-79
2023/12/07 00:17:05;;;;;;;17.45;11.10;;;3.30;99.90;;;;;;4978383;28;20137;-79
2023/12/07 00:19:30;;;;;;;18.73;10.43;;;3.20;99.90;;;;;;4978014;28;20046;-79
2023/12/07 00:21:56;;;;;;;19.35;11.10;;;3.40;99.90;;;;;;4977269;28;20061;-79
2023/12/07 00:24:21;;;;;;;17.60;11.27;;;3.20;99.90;;;;;;4993841;28;20043;-79
2023/12/07 00:26:48;;;;;;;15.25;9.77;;;3.20;99.90;;;;;;4978092;28;20034;-79
2023/12/07 00:29:13;;;;;;;18.17;9.70;;;3.30;99.90;;;;;;4995720;28;20050;-79
2023/12/07 00:31:39;;;;;;;17.77;11.25;;;3.30;99.90;;;;;;4977387;28;20070;-79
2023/12/07 00:34:05;;;;;;;15.38;10.68;;;3.30;99.90;;;;;;4993538;28;20498;-79
2023/12/07 00:36:31;;;;;;;16.33;9.95;;;3.20;99.90;;;;;;4993096;28;20129;-79
2023/12/07 00:38:56;;;;;;;15.45;10.35;;;3.40;99.90;;;;;;4993886;28;20077;-79
2023/12/07 00:41:22;;;;;;;16.77;10.48;;;3.20;99.90;;;;;;4977224;28;20125;-79
2023/12/07 00:43:48;;;;;;;18.13;10.27;;;3.20;99.90;;;;;;4977448;28;20030;-79
2023/12/07 00:46:13;;;;;;;20.88;10.00;;;3.40;99.90;;;;;;4994555;28;20038;-80
2023/12/07 00:48:40;;;;;;;17.08;9.93;;;3.40;99.90;;;;;;4977943;28;20034;-79
2023/12/07 00:51:08;;;;;;;20.02;10.30;;;3.30;99.90;;;;;;4994562;28;20540;-80
2023/12/07 00:53:34;;;;;;;16.42;9.50;;;3.30;99.90;;;;;;4994037;28;20065;-80
2023/12/07 00:55:59;;;;;;;17.02;11.18;;;3.30;99.90;;;;;;4994165;28;20414;-80
2023/12/07 00:58:25;;;;;;;17.48;10.57;;;3.30;99.90;;;;;;4997072;28;20034;-80
2023/12/07 01:00:51;;;;;;;16.25;9.90;;;3.40;99.90;;;;;;5001779;28;20065;-80
2023/12/07 01:03:16;;;;;;;19.60;11.05;;;3.20;99.90;;;;;;5002309;28;20093;-80
2023/12/07 01:05:42;;;;;;;20.35;10.98;;;3.30;99.90;;;;;;5000504;28;20045;-80
2023/12/07 01:08:08;;;;;;;16.23;10.10;;;3.20;99.90;;;;;;4987605;28;20061;-80
2023/12/07 01:10:33;;;;;;;17.40;10.65;;;3.20;99.90;;;;;;4983834;28;20058;-79
2023/12/07 01:12:59;;;;;;;17.15;10.43;;;3.30;99.90;;;;;;4985451;28;20034;-79
2023/12/07 01:15:24;;;;;;;15.23;10.23;;;3.10;99.90;;;;;;5000826;28;20030;-79
2023/12/07 01:17:50;;;;;;;17.90;10.98;;;3.30;99.90;;;;;;4998683;28;20045;-80
2023/12/07 01:20:17;;;;;;;16.55;9.85;;;3.40;99.90;;;;;;5001028;28;20030;-80
2023/12/07 01:22:42;;;;;;;16.25;10.15;;;3.20;99.90;;;;;;4983799;28;20173;-79
2023/12/07 01:25:21;;;;;;;15.98;9.88;;;3.20;99.90;;;;;;4999433;28;20038;-79
2023/12/07 01:27:48;;;;;;;15.77;10.55;;;3.20;99.90;;;;;;4983080;28;20042;-79
2023/12/07 01:30:14;;;;;;;13.85;9.35;;;3.20;99.90;;;;;;4983542;28;20093;-80
2023/12/07 01:32:39;;;;;;;16.38;9.35;;;3.20;99.90;;;;;;4983101;28;20042;-80
2023/12/07 01:35:06;;;;;;;15.65;9.73;;;3.40;99.90;;;;;;4982637;28;20082;-80
2023/12/07 01:37:31;;;;;;;14.40;9.13;;;3.40;99.90;;;;;;5009695;23;20402;-70
2023/12/07 01:39:57;;;;;;;18.27;10.40;;;3.30;99.90;;;;;;4995362;28;20097;-71
2023/12/07 01:42:22;;;;;;;15.95;9.93;;;3.20;99.90;;;;;;4994789;28;20038;-70
2023/12/07 01:44:48;;;;;;;18.13;9.05;;;3.20;99.90;;;;;;4995560;28;20042;-70
2023/12/07 01:47:15;;;;;;;15.43;9.48;;;3.20;99.90;;;;;;4994552;28;20085;-71
2023/12/07 01:49:41;;;;;;;16.90;9.70;;;3.10;99.90;;;;;;4994002;28;20077;-71
2023/12/07 01:52:08;;;;;;;15.40;9.85;;;3.30;99.90;;;;;;4995307;28;20054;-70
2023/12/07 01:54:34;;;;;;;15.98;9.45;;;3.20;99.90;;;;;;4994130;28;20506;-70
2023/12/07 01:57:00;;;;;;;15.55;8.82;;;3.20;99.90;;;;;;4994729;28;20525;-70
2023/12/07 01:59:25;;;;;;;15.02;8.82;;;3.30;99.90;;;;;;4995022;28;20038;-71
2023/12/07 02:01:51;;;;;;;13.77;9.10;;;3.20;99.90;;;;;;4995040;28;20038;-70
2023/12/07 02:04:17;;;;;;;15.02;8.45;;;3.30;99.90;;;;;;4995146;28;20173;-70
2023/12/07 02:06:43;;;;;;;15.63;8.45;;;3.10;99.90;;;;;;4994707;28;20383;-70
2023/12/07 02:09:09;;;;;;;14.38;8.15;;;3.40;99.90;;;;;;4994750;28;20049;-70
2023/12/07 02:11:35;;;;;;;16.38;9.75;;;3.20;99.90;;;;;;4993621;28;20042;-70
2023/12/07 02:14:01;;;;;;;16.00;8.82;;;3.30;99.90;;;;;;4995100;28;20049;-70
2023/12/07 02:16:44;;;;;;;14.55;8.55;;;3.20;99.90;;;;;;4994082;28;20042;-70
2023/12/07 02:19:15;;;;;;;13.53;8.50;;;3.20;99.90;;;;;;4993857;28;20046;-71
2023/12/07 02:22:07;;;;;;;14.27;8.40;;;3.20;99.90;;;;;;4994779;28;20088;-71
2023/12/07 02:24:36;;;;;;;13.57;8.20;;;3.30;99.90;;;;;;4994932;28;20069;-70
2023/12/07 02:27:02;;;;;;;12.77;8.50;;;3.20;99.90;;;;;;4994273;28;20505;-70
2023/12/07 02:29:27;;;;;;;14.18;8.20;;;3.30;99.90;;;;;;4994668;28;20072;-71
2023/12/07 02:31:53;;;;;;;12.90;7.97;;;3.40;99.90;;;;;;4993308;28;20498;-70
2023/12/07 02:34:19;;;;;;;12.50;8.52;;;3.20;99.90;;;;;;4994473;28;20112;-70
2023/12/07 02:36:48;;;;;;;18.90;8.73;;;3.30;99.90;;;;;;4992963;28;20046;-71
2023/12/07 02:39:14;;;;;;;13.85;8.75;;;3.40;99.90;;;;;;4994449;28;20038;-70
2023/12/07 02:41:41;;;;;;;13.85;8.57;;;3.40;99.90;;;;;;4994494;28;20410;-70
2023/12/07 02:44:07;;;;;;;13.85;8.65;;;3.30;99.90;;;;;;4994378;28;20038;-71
2023/12/07 02:46:33;;;;;;;11.88;8.07;;;3.20;99.90;;;;;;4992911;28;20172;-70
2023/12/07 02:48:59;;;;;;;14.13;7.93;;;3.40;99.90;;;;;;4994153;28;20413;-71
2023/12/07 02:51:24;;;;;;;13.43;7.80;;;3.30;99.90;;;;;;4993183;28;20038;-70
2023/12/07 02:53:50;;;;;;;12.80;7.68;;;3.20;99.90;;;;;;4994269;28;20046;-70
2023/12/07 02:56:16;;;;;;;11.35;8.40;;;3.30;99.90;;;;;;4993831;28;20054;-70
2023/12/07 02:58:41;;;;;;;12.38;7.80;;;3.20;99.90;;;;;;4994102;28;20055;-70
2023/12/07 03:01:08;;;;;;;12.18;7.75;;;3.30;99.90;;;;;;4994109;28;20041;-70
2023/12/07 03:03:33;;;;;;;18.33;8.38;;;3.20;99.90;;;;;;4993928;28;20077;-70
2023/12/07 03:05:59;;;;;;;15.38;8.48;;;3.20;99.90;;;;;;4992321;28;20065;-70
2023/12/07 03:08:24;;;;;;;13.27;8.30;;;3.20;99.90;;;;;;4994007;28;20101;-70
2023/12/07 03:10:50;;;;;;;13.98;8.13;;;3.20;99.90;;;;;;4993819;28;20038;-70
2023/12/07 03:13:16;;;;;;;12.88;8.05;;;3.10;99.90;;;;;;4993680;28;20042;-70
2023/12/07 03:15:41;;;;;;;11.82;7.60;;;3.20;99.90;;;;;;4993623;28;20042;-71
2023/12/07 03:18:07;;;;;;;11.48;7.32;;;3.10;99.90;;;;;;4993330;28;20461;-70
2023/12/07 03:20:33;;;;;;;10.85;7.07;;;3.30;99.90;;;;;;4993536;28;20043;-70
2023/12/07 03:22:59;;;;;;;15.18;7.97;;;3.10;99.90;;;;;;4992328;28;20034;-70
2023/12/07 03:25:25;;;;;;;12.35;7.88;;;3.30;99.90;;;;;;4993536;28;20469;-70
2023/12/07 03:27:50;;;;;;;12.95;8.15;;;3.40;99.90;;;;;;4991666;28;20869;-70
2023/12/07 03:30:16;;;;;;;10.38;7.55;;;3.20;99.90;;;;;;4991936;28;20038;-70
2023/12/07 03:32:41;;;;;;;13.50;8.18;;;3.20;99.90;;;;;;4992070;28;20049;-70
2023/12/07 03:35:07;;;;;;;13.35;7.47;;;3.10;99.90;;;;;;4992051;28;20042;-70
2023/12/07 03:37:33;;;;;;;12.93;7.75;;;3.10;99.90;;;;;;4992870;28;20042;-71
2023/12/07 03:39:58;;;;;;;12.27;8.30;;;3.10;99.90;;;;;;4993109;28;20047;-70
2023/12/07 03:42:24;;;;;;;13.15;8.40;;;3.20;99.90;;;;;;4991914;28;20038;-70
2023/12/07 03:44:49;;;;;;;11.93;7.78;;;3.10;99.90;;;;;;4993207;28;20121;-70
2023/12/07 03:47:15;;;;;;;10.68;7.07;;;3.30;99.90;;;;;;4992691;28;20034;-70
2023/12/07 03:49:41;;;;;;;11.45;7.22;;;3.40;99.90;;;;;;4991769;28;20046;-70
2023/12/07 03:52:07;;;;;;;12.70;7.82;;;3.20;99.90;;;;;;4993163;28;20081;-70
2023/12/07 03:54:33;;;;;;;12.07;7.80;;;3.20;99.90;;;;;;4992995;28;20529;-71
2023/12/07 03:56:58;;;;;;;11.38;7.05;;;3.20;99.90;;;;;;4991417;28;20049;-70
2023/12/07 03:59:24;;;;;;;11.77;7.50;;;3.30;99.90;;;;;;4991577;28;20121;-70
2023/12/07 04:01:49;;;;;;;12.30;7.75;;;3.20;99.90;;;;;;4991836;28;20069;-70
2023/12/07 04:04:15;;;;;;;11.00;6.78;;;3.30;99.90;;;;;;4993064;28;20034;-70
2023/12/07 04:06:40;;;;;;;14.05;7.88;;;3.30;99.90;;;;;;4992544;28;20074;-71
2023/12/07 04:09:07;;;;;;;17.00;7.70;;;3.40;99.90;;;;;;4992804;28;20514;-70
2023/12/07 04:11:33;;;;;;;14.25;8.27;;;3.20;99.90;;;;;;4991758;28;20406;-70
2023/12/07 04:13:59;;;;;;;11.40;7.00;;;3.20;99.90;;;;;;4992749;28;20049;-70
2023/12/07 04:16:25;;;;;;;13.88;7.32;;;3.40;99.90;;;;;;4992339;28;20072;-71
2023/12/07 04:18:51;;;;;;;10.75;7.57;;;3.40;99.90;;;;;;4992852;28;20042;-70
2023/12/07 04:21:17;;;;;;;11.23;7.40;;;3.50;99.90;;;;;;4992827;28;20406;-70
2023/12/07 04:23:42;;;;;;;13.65;8.20;;;3.40;99.90;;;;;;4992741;28;20545;-70
2023/12/07 04:26:08;;;;;;;11.77;7.70;;;3.40;99.90;;;;;;4992279;28;20042;-70
2023/12/07 04:28:33;;;;;;;12.38;7.72;;;3.40;99.90;;;;;;4992460;28;20490;-70
2023/12/07 04:30:59;;;;;;;14.93;7.85;;;3.20;99.90;;;;;;4992431;28;20047;-70
2023/12/07 04:33:25;;;;;;;10.85;7.53;;;3.30;99.90;;;;;;4991164;28;20038;-70
2023/12/07 04:35:50;;;;;;;12.40;7.25;;;3.30;99.90;;;;;;4992105;28;20455;-71
2023/12/07 04:38:16;;;;;;;12.98;7.78;;;3.20;99.90;;;;;;4992212;28;20038;-70
2023/12/07 04:40:41;;;;;;;14.10;8.00;;;3.40;99.90;;;;;;4992262;28;20038;-70
2023/12/07 04:43:07;;;;;;;13.73;7.78;;;3.30;99.90;;;;;;4992413;28;20545;-70
2023/12/07 04:45:33;;;;;;;13.27;7.82;;;3.40;99.90;;;;;;4992088;28;20037;-70
2023/12/07 04:48:00;;;;;;;12.68;8.38;;;3.40;99.90;;;;;;4992295;28;20096;-70
2023/12/07 04:50:25;;;;;;;15.70;8.38;;;3.40;99.90;;;;;;4974822;28;20050;-70
2023/12/07 04:52:51;;;;;;;11.82;7.97;;;3.40;99.90;;;;;;4992346;28;20125;-70
2023/12/07 04:55:17;;;;;;;13.82;7.47;;;3.20;99.90;;;;;;4990937;28;20465;-70
2023/12/07 04:57:42;;;;;;;14.25;8.32;;;3.20;99.90;;;;;;4992061;28;20497;-70
2023/12/07 05:00:11;;;;;;;12.70;7.50;;;3.20;99.90;;;;;;4992031;28;20038;-70
2023/12/07 05:02:37;;;;;;;13.43;8.20;;;3.20;99.90;;;;;;4992173;28;20621;-70
2023/12/07 05:05:03;;;;;;;14.32;8.10;;;3.40;99.90;;;;;;4992260;28;20121;-70
2023/12/07 05:07:28;;;;;;;13.65;8.88;;;3.40;99.90;;;;;;4991960;28;20113;-70
2023/12/07 05:09:54;;;;;;;18.88;9.45;;;3.30;99.90;;;;;;4991102;28;20038;-70
2023/12/07 05:12:19;;;;;;;14.38;8.50;;;3.20;99.90;;;;;;4990870;28;20044;-70
2023/12/07 05:14:45;;;;;;;15.57;9.50;;;3.10;99.90;;;;;;4992021;28;20065;-70
2023/12/07 05:17:11;;;;;;;13.32;9.65;;;3.20;99.90;;;;;;4990461;28;20038;-70
2023/12/07 05:19:36;;;;;;;15.23;9.25;;;3.20;99.90;;;;;;4992048;28;20418;-70
2023/12/07 05:22:02;;;;;;;13.73;8.25;;;3.20;99.90;;;;;;4992097;28;20042;-70
2023/12/07 05:24:28;;;;;;;14.70;9.20;;;3.20;99.90;;;;;;4992072;28;20034;-70
2023/12/07 05:26:53;;;;;;;14.55;9.32;;;3.20;99.90;;;;;;4991732;28;20031;-70
2023/12/07 05:29:19;;;;;;;17.50;10.23;;;3.10;99.90;;;;;;4991991;28;20030;-70
2023/12/07 05:31:48;;;;;;;19.17;10.02;;;3.20;99.90;;;;;;4992092;28;20046;-71
2023/12/07 05:34:13;;;;;;;15.38;9.32;;;3.00;99.90;;;;;;4991962;28;20049;-70
2023/12/07 05:36:39;;;;;;;16.77;10.65;;;3.10;99.90;;;;;;4990339;28;20034;-70
2023/12/07 05:39:07;;;;;;;16.15;10.05;;;3.00;99.90;;;;;;4991893;28;20038;-70
2023/12/07 05:41:32;;;;;;;18.10;9.63;;;3.00;99.90;;;;;;4991879;28;20085;-71
2023/12/07 05:43:58;;;;;;;18.55;9.50;;;3.10;99.90;;;;;;4991756;28;20070;-70
2023/12/07 05:46:24;;;;;;;16.70;9.77;;;3.20;99.90;;;;;;4991614;28;20096;-70
2023/12/07 05:48:49;;;;;;;13.52;8.48;;;3.10;99.90;;;;;;4991686;28;20103;-70
2023/12/07 05:51:17;;;;;;;19.85;9.45;;;3.20;99.90;;;;;;4991872;28;20053;-70
2023/12/07 05:53:43;;;;;;;17.48;10.40;;;3.00;99.90;;;;;;4995189;28;20045;-70
2023/12/07 05:56:10;;;;;;;16.35;9.70;;;3.20;99.90;;;;;;4994867;28;20046;-70
2023/12/07 05:58:35;;;;;;;19.20;9.68;;;3.20;99.90;;;;;;4994988;28;20045;-70
2023/12/07 06:01:02;;;;;;;19.50;10.07;;;3.10;99.90;;;;;;4995342;28;20042;-70
2023/12/07 06:03:28;;;;;;;15.75;9.88;;;3.10;99.90;;;;;;4995250;28;20061;-70
2023/12/07 06:05:54;;;;;;;16.83;10.20;;;3.10;99.90;;;;;;4994787;28;20042;-70
2023/12/07 06:08:19;;;;;;;15.48;10.45;;;3.20;99.90;;;;;;4995104;28;20097;-70
2023/12/07 06:10:45;;;;;;;17.17;9.93;;;3.10;99.90;;;;;;4995015;28;20410;-70
2023/12/07 06:13:13;;;;;;;15.82;10.40;;;3.10;99.90;;;;;;4994779;28;20069;-70
2023/12/07 06:15:39;;;;;;;19.83;10.88;;;3.10;99.90;;;;;;4994946;28;20077;-70
2023/12/07 06:18:05;;;;;;;17.90;10.35;;;3.00;99.90;;;;;;4993224;28;20084;-70
2023/12/07 06:20:31;;;;;;;15.93;9.38;;;3.20;99.90;;;;;;4994780;28;20046;-71
2023/12/07 06:22:57;;;;;;;17.20;9.52;;;3.00;99.90;;;;;;4994645;28;20597;-71
2023/12/07 06:25:23;;;;;;;17.25;10.27;;;2.90;99.90;;;;;;4993396;28;20038;-71
2023/12/07 06:27:49;;;;;;;16.75;10.02;;;3.00;99.90;;;;;;4994305;28;20450;-71
2023/12/07 06:30:15;;;;;;;14.48;8.68;;;3.20;99.90;;;;;;4993482;28;20057;-71
2023/12/07 06:32:40;;;;;;;18.50;10.18;;;3.00;99.90;;;;;;4994472;28;20046;-71
2023/12/07 06:35:07;;;;;;;15.68;9.68;;;3.10;99.90;;;;;;4994579;28;20096;-71
2023/12/07 06:37:33;;;;;;;14.10;8.85;;;3.10;99.90;;;;;;4994095;28;20116;-71
2023/12/07 06:40:01;;;;;;;15.93;8.77;;;3.00;99.90;;;;;;4994335;28;20626;-71
2023/12/07 06:42:27;;;;;;;17.10;9.88;;;3.00;99.90;;;;;;4994273;28;20038;-71
2023/12/07 06:44:52;;;;;;;14.35;8.98;;;3.00;99.90;;;;;;4994482;28;20042;-71
2023/12/07 06:47:18;;;;;;;17.25;9.80;;;3.20;99.90;;;;;;4994005;28;20042;-71
2023/12/07 06:49:46;;;;;;;17.58;9.18;;;3.10;99.90;;;;;;4994264;28;20085;-71
2023/12/07 06:52:12;;;;;;;16.50;9.10;;;3.10;99.90;;;;;;4994231;28;20057;-71
2023/12/07 06:54:38;;;;;;;15.98;9.10;;;3.00;99.90;;;;;;4994110;28;20038;-71
2023/12/07 06:57:05;;;;;;;17.00;9.38;;;3.00;99.90;;;;;;4993799;28;20093;-71
2023/12/07 06:59:30;;;;;;;13.88;8.52;;;3.10;99.90;;;;;;4994231;28;20413;-71
2023/12/07 07:01:56;;;;;;;15.77;8.43;;;3.10;99.90;;;;;;4994137;28;20030;-71
2023/12/07 07:04:21;;;;;;;16.20;9.07;;;3.10;99.90;;;;;;4993946;28;20121;-71
2023/12/07 07:06:47;;;;;;;15.32;8.35;;;3.20;99.90;;;;;;4993621;28;20528;-71
2023/12/07 07:09:13;;;;;;;20.92;9.90;;;3.20;99.90;;;;;;4993913;28;20046;-71
2023/12/07 07:11:38;;;;;;;16.50;9.48;;;3.20;99.90;;;;;;4993827;28;20047;-71
2023/12/07 07:14:04;;;;;;;15.93;9.43;;;3.10;99.90;;;;;;4993931;28;20073;-71
2023/12/07 07:16:30;;;;;;;18.38;10.43;;;3.30;99.90;;;;;;4993467;28;20070;-71
2023/12/07 07:18:56;;;;;;;16.88;8.70;;;3.10;99.90;;;;;;4993638;28;20042;-71
2023/12/07 07:21:22;;;;;;;15.75;9.63;;;3.20;99.90;;;;;;4993680;28;20042;-71
2023/12/07 07:23:48;;;;;;;15.75;9.15;;;3.30;99.90;;;;;;4993357;28;20418;-71
2023/12/07 07:26:16;;;;;;;15.40;9.57;;;3.20;99.90;;;;;;4993162;28;20497;-71
2023/12/07 07:28:43;;;;;;;16.83;10.63;;;3.20;99.90;;;;;;4993712;28;20104;-71
2023/12/07 07:31:08;;;;;;;14.98;8.80;;;3.20;99.90;;;;;;4982271;28;20050;-71
2023/12/07 07:33:34;;;;;;;20.75;10.20;;;3.30;99.90;;;;;;4974044;28;20038;-71
2023/12/07 07:36:00;;;;;;;18.77;9.40;;;3.20;99.90;;;;;;4973452;28;20117;-71
2023/12/07 07:38:26;;;;;;;17.42;9.77;;;3.30;99.90;;;;;;5014368;23;20050;-75
2023/12/07 07:40:51;;;;;;;16.05;9.52;;;3.40;99.90;;;;;;4992818;28;20478;-75
2023/12/07 07:43:17;;;;;;;16.70;8.77;;;3.40;99.90;;;;;;4975450;28;20561;-75
2023/12/07 07:45:43;;;;;;;16.42;9.35;;;3.30;99.90;;;;;;4992107;28;20118;-76
2023/12/07 07:48:09;;;;;;;17.98;9.73;;;3.30;99.90;;;;;;4991684;28;20498;-76
2023/12/07 07:50:36;;;;;;;16.90;9.45;;;3.50;99.90;;;;;;4991999;28;20034;-75
2023/12/07 07:53:02;;;;;;;23.98;9.75;;;3.40;99.90;;;;;;4975734;28;20517;-76
2023/12/07 07:55:27;;;;;;;16.83;8.75;;;3.50;99.90;;;;;;4975542;28;20038;-75
2023/12/07 07:57:54;;;;;;;21.48;10.45;;;3.40;99.90;;;;;;4975453;28;20519;-75
2023/12/07 08:00:19;;;;;;;16.60;9.32;;;3.40;99.90;;;;;;4991709;28;20035;-75
2023/12/07 08:02:46;;;;;;;17.33;9.43;;;3.30;99.90;;;;;;4991363;28;20049;-76
2023/12/07 08:05:12;;;;;;;16.67;9.32;;;3.50;99.90;;;;;;4991739;28;20038;-75
2023/12/07 08:07:41;;;;;;;17.70;9.27;;;3.40;99.90;;;;;;4991300;28;20564;-76
2023/12/07 08:10:07;;;;;;;15.55;9.07;;;3.40;99.90;;;;;;4991557;28;20043;-75
2023/12/07 08:12:33;;;;;;;16.20;9.45;;;3.40;99.90;;;;;;4991505;28;20052;-75
2023/12/07 08:14:59;;;;;;;14.77;8.90;;;3.40;99.90;;;;;;4990760;28;20051;-75
2023/12/07 08:17:26;;;;;;;13.13;8.20;;;3.60;99.90;;;;;;4975402;28;20468;-76
2023/12/07 08:19:52;;;;;;;18.38;9.68;;;3.60;99.90;;;;;;4992473;28;20049;-75
2023/12/07 08:22:17;;;;;;;14.15;8.80;;;3.50;99.90;;;;;;4991460;28;20046;-76
2023/12/07 08:24:43;;;;;;;16.08;8.65;;;3.60;99.90;;;;;;4993120;28;20096;-75
2023/12/07 08:27:09;;;;;;;16.50;9.95;;;3.60;99.90;;;;;;4974919;28;20154;-76
2023/12/07 08:29:35;;;;;;;14.07;8.70;;;3.60;99.90;;;;;;4991712;28;20056;-76
2023/12/07 08:32:00;;;;;;;15.40;9.38;;;3.60;99.90;;;;;;4991740;28;20108;-75
2023/12/07 08:34:26;;;;;;;18.60;10.30;;;3.60;99.90;;;;;;4991315;28;20049;-75
2023/12/07 08:36:52;;;;;;;18.05;10.88;;;3.50;99.90;;;;;;4990756;28;20042;-75
2023/12/07 08:39:18;;;;;;;23.65;12.02;;;3.50;99.90;;;;;;4991192;28;20048;-75
2023/12/07 08:41:43;;;;;;;23.60;12.80;;;3.40;99.90;;;;;;4991388;28;20043;-76
2023/12/07 08:44:09;;;;;;;27.05;14.70;;;3.50;99.90;;;;;;4991065;28;20035;-75
2023/12/07 08:46:35;;;;;;;26.23;14.02;;;3.50;99.90;;;;;;4974986;28;20050;-75
2023/12/07 08:49:01;;;;;;;28.38;15.30;;;3.50;99.90;;;;;;4991414;28;20121;-75
2023/12/07 08:51:28;;;;;;;23.38;14.13;;;3.60;99.90;;;;;;4975138;28;20045;-75
2023/12/07 08:53:54;;;;;;;28.35;15.32;;;3.60;99.90;;;;;;4991249;28;20057;-75
2023/12/07 08:56:20;;;;;;;25.90;14.77;;;3.60;99.90;;;;;;4983549;28;20042;-75
2023/12/07 08:58:45;;;;;;;27.63;13.90;;;3.60;99.90;;;;;;4971547;28;20065;-76
2023/12/07 09:01:11;;;;;;;23.80;13.90;;;3.50;99.90;;;;;;4971615;28;20046;-75
2023/12/07 09:03:37;;;;;;;30.15;15.70;;;3.60;99.90;;;;;;4971660;28;20038;-76
2023/12/07 09:06:05;;;;;;;28.90;15.43;;;3.60;99.90;;;;;;4971507;28;20031;-76
2023/12/07 09:08:30;;;;;;;25.88;13.77;;;3.50;99.90;;;;;;4971884;28;20394;-76
2023/12/07 09:10:56;;;;;;;24.85;14.13;;;3.50;99.90;;;;;;4955507;28;20045;-76
2023/12/07 09:13:22;;;;;;;29.13;14.95;;;3.50;99.90;;;;;;4971755;28;20043;-76
2023/12/07 09:15:47;;;;;;;28.17;15.00;;;3.50;99.90;;;;;;4971539;28;20061;-76
2023/12/07 09:18:13;;;;;;;24.77;13.98;;;3.40;99.90;;;;;;4971391;28;20050;-76
2023/12/07 09:20:47;;;;;;;24.48;14.20;;;3.30;99.90;;;;;;4971413;28;20031;-76
2023/12/07 09:23:14;;;;;;;31.63;16.90;;;3.40;99.90;;;;;;4971570;28;20067;-76
2023/12/07 09:25:41;;;;;;;27.63;16.17;;;3.40;99.90;;;;;;4955270;28;20045;-76
2023/12/07 09:28:06;;;;;;;29.95;16.60;;;3.50;99.90;;;;;;4973720;28;20092;-76
2023/12/07 09:30:33;;;;;;;30.23;16.63;;;3.50;99.90;;;;;;4978435;28;20042;-75
2023/12/07 09:32:59;;;;;;;26.90;14.75;;;3.50;99.90;;;;;;4976143;28;20074;-76
2023/12/07 09:35:25;;;;;;;29.95;15.52;;;3.50;99.90;;;;;;4977797;28;20046;-76
2023/12/07 09:37:51;;;;;;;32.35;17.75;;;3.40;99.90;;;;;;4993449;28;20038;-75
2023/12/07 09:40:19;;;;;;;27.13;16.00;;;3.50;99.90;;;;;;4975768;28;20185;-76
2023/12/07 09:42:46;;;;;;;28.45;16.38;;;3.50;99.90;;;;;;4993906;28;20070;-76
2023/12/07 09:45:13;;;;;;;31.25;16.73;;;3.50;99.90;;;;;;4993740;28;20038;-76
2023/12/07 09:47:40;;;;;;;31.98;17.55;;;3.60;99.90;;;;;;4992840;28;20117;-75
2023/12/07 09:50:11;;;;;;;30.17;17.98;;;3.60;99.90;;;;;;4977063;28;20038;-75
2023/12/07 09:52:38;;;;;;;32.88;17.23;;;3.50;99.90;;;;;;4991664;28;20042;-75
2023/12/07 09:55:05;;;;;;;30.45;17.77;;;3.50;99.90;;;;;;4989173;28;20057;-75
2023/12/07 09:57:31;;;;;;;33.33;18.15;;;3.50;99.90;;;;;;4983225;28;20402;-75
2023/12/07 09:59:57;;;;;;;34.10;18.48;;;3.50;99.90;;;;;;4990767;28;20094;-76
2023/12/07 10:02:24;;;;;;;30.25;16.88;;;3.60;99.90;;;;;;4985821;28;20038;-75
2023/12/07 10:05:06;;;;;;;31.73;18.08;;;3.60;99.90;;;;;;4994170;28;20061;-75
2023/12/07 10:07:37;;;;;;;26.58;16.25;;;3.60;99.90;;;;;;4993703;28;20030;-76
2023/12/07 10:10:04;;;;;;;32.10;17.27;;;3.50;99.90;;;;;;4994238;28;20502;-76
2023/12/07 10:12:58;;;;;;;27.92;16.75;;;3.60;99.90;;;;;;4993781;28;20514;-76
2023/12/07 10:15:25;;;;;;;27.70;16.13;;;3.50;99.90;;;;;;4993649;28;20104;-76
2023/12/07 10:17:50;;;;;;;30.95;17.10;;;3.50;99.90;;;;;;4993412;28;20505;-76
2023/12/07 10:20:24;;;;;;;30.70;17.73;;;3.60;99.90;;;;;;4990432;28;20113;-75
2023/12/07 10:23:08;;;;;;;27.98;15.68;;;3.60;99.90;;;;;;4984188;28;20043;-76
2023/12/07 10:25:39;;;;;;;29.25;16.02;;;3.60;99.90;;;;;;4993693;28;20504;-76
2023/12/07 10:28:07;;;;;;;30.58;16.40;;;3.50;99.90;;;;;;4994223;28;20077;-74
2023/12/07 10:30:36;;;;;;;25.75;16.10;;;3.60;99.90;;;;;;4977640;28;20034;-76
2023/12/07 10:33:09;;;;;;;28.90;14.98;;;3.60;99.90;;;;;;4977493;28;20038;-76
2023/12/07 10:35:42;;;;;;;26.98;15.43;;;3.70;99.90;;;;;;4992758;28;20042;-76
2023/12/07 10:38:08;;;;;;;29.65;16.83;;;3.70;99.90;;;;;;4992192;28;20070;-76
2023/12/07 10:40:34;;;;;;;26.88;15.23;;;3.70;99.90;;;;;;4980840;28;20043;-75
2023/12/07 10:43:05;;;;;;;33.20;15.75;;;3.80;99.90;;;;;;4979818;28;20121;-76
2023/12/07 10:45:31;;;;;;;30.40;16.92;;;3.80;99.90;;;;;;4993207;28;20515;-75
2023/12/07 10:48:08;;;;;;;24.60;14.30;;;3.80;99.90;;;;;;4976637;28;20081;-76
2023/12/07 10:50:43;;;;;;;28.70;15.18;;;3.90;99.90;;;;;;4993093;28;20088;-76
2023/12/07 10:53:10;;;;;;;25.60;14.07;;;3.80;99.90;;;;;;4992905;28;20054;-75
2023/12/07 10:55:49;;;;;;;25.73;15.10;;;3.80;99.90;;;;;;4976613;28;20181;-75
2023/12/07 10:58:17;;;;;;;30.13;15.68;;;4.00;99.90;;;;;;4976756;28;20053;-75
2023/12/07 11:00:46;;;;;;;27.85;15.30;;;3.90;99.90;;;;;;4992747;28;20057;-75
2023/12/07 11:03:17;;;;;;;23.05;13.20;;;4.00;99.90;;;;;;4992768;28;20045;-75
2023/12/07 11:05:44;;;;;;;23.92;14.90;;;4.10;99.90;;;;;;4992713;28;20506;-75
2023/12/07 11:08:14;;;;;;;24.02;12.63;;;4.00;99.90;;;;;;4992425;28;20093;-76
2023/12/07 11:10:50;;;;;;;25.08;14.52;;;4.00;99.90;;;;;;4992555;28;20051;-75
2023/12/07 11:13:27;;;;;;;24.33;14.93;;;4.00;99.90;;;;;;4992576;28;20050;-75
2023/12/07 11:15:52;;;;;;;23.98;13.63;;;4.10;99.90;;;;;;4993424;28;20055;-75
2023/12/07 11:18:18;;;;;;;22.80;14.05;;;4.20;99.90;;;;;;4992024;28;20044;-76
2023/12/07 11:20:47;;;;;;;23.77;14.55;;;4.20;99.90;;;;;;4976227;28;20054;-76
2023/12/07 11:23:17;;;;;;;25.75;15.00;;;4.20;99.90;;;;;;4992684;28;20050;-76
2023/12/07 11:25:44;;;;;;;27.52;16.27;;;4.30;99.90;;;;;;4991832;28;20584;-76
2023/12/07 11:28:11;;;;;;;31.48;17.50;;;4.30;99.90;;;;;;4991215;28;20084;-75
2023/12/07 11:30:37;;;;;;;27.98;16.20;;;4.20;99.90;;;;;;4992234;28;20050;-76
2023/12/07 11:33:06;;;;;;;25.48;14.63;;;4.30;99.90;;;;;;4992336;28;20046;-76
2023/12/07 11:35:32;;;;;;;27.35;16.15;;;4.20;99.90;;;;;;4991864;28;20038;-76
2023/12/07 11:38:07;;;;;;;25.80;15.80;;;4.30;99.90;;;;;;4991637;28;20081;-76
2023/12/07 11:40:39;;;;;;;25.17;15.02;;;4.30;99.90;;;;;;4992036;28;20038;-76
2023/12/07 11:43:06;;;;;;;38.28;20.88;;;4.40;99.90;;;;;;4976112;28;20581;-76
2023/12/07 11:45:47;;;;;;;31.27;16.00;;;4.30;99.90;;;;;;4991992;28;20379;-76
2023/12/07 11:48:15;;;;;;;27.63;15.80;;;4.40;99.90;;;;;;4991605;28;20038;-76
2023/12/07 11:51:01;;;;;;;28.10;16.38;;;4.20;99.90;;;;;;4989964;28;20557;-76
2023/12/07 11:53:34;;;;;;;26.88;15.80;;;4.10;99.90;;;;;;4991010;28;20517;-76
2023/12/07 11:56:02;;;;;;;26.52;15.40;;;4.00;99.90;;;;;;4971887;28;20039;-75
2023/12/07 11:58:30;;;;;;;24.55;14.30;;;4.00;99.90;;;;;;4980773;28;20070;-76
2023/12/07 12:00:56;;;;;;;22.65;14.38;;;3.70;99.90;;;;;;4971948;28;20503;-76
2023/12/07 12:03:26;;;;;;;22.63;14.23;;;3.80;99.90;;;;;;4972342;28;20047;-76
2023/12/07 12:05:52;;;;;;;26.40;15.32;;;3.60;99.90;;;;;;4972315;28;20234;-75
2023/12/07 12:08:18;;;;;;;25.60;15.20;;;3.60;99.90;;;;;;4956114;28;20041;-76
2023/12/07 12:10:45;;;;;;;22.95;14.57;;;3.70;99.90;;;;;;4972266;28;20083;-76
2023/12/07 12:13:12;;;;;;;24.05;13.63;;;3.60;99.90;;;;;;4964116;28;20121;-76
2023/12/07 12:15:39;;;;;;;22.88;14.50;;;3.70;99.90;;;;;;4991543;28;20446;-76
2023/12/07 12:18:05;;;;;;;24.92;14.65;;;3.70;99.90;;;;;;4991600;28;20050;-75
2023/12/07 12:20:32;;;;;;;25.10;15.25;;;3.50;99.90;;;;;;4991348;28;20041;-76
2023/12/07 12:22:58;;;;;;;22.15;13.55;;;3.40;99.90;;;;;;4991444;28;20093;-76
2023/12/07 12:25:31;;;;;;;27.40;15.27;;;3.40;99.90;;;;;;4991352;28;20031;-76
2023/12/07 12:28:08;;;;;;;23.25;14.38;;;3.40;99.90;;;;;;4991412;28;20045;-76
2023/12/07 12:30:34;;;;;;;31.02;15.45;;;3.30;99.90;;;;;;4991007;28;20497;-75
2023/12/07 12:33:00;;;;;;;24.83;15.90;;;3.30;99.90;;;;;;4974839;28;20039;-76
2023/12/07 12:35:25;;;;;;;23.60;14.07;;;3.30;99.90;;;;;;4991015;28;20088;-78
2023/12/07 12:37:51;;;;;;;27.83;14.82;;;3.30;99.90;;;;;;4991543;28;20038;-74
2023/12/07 12:40:19;;;;;;;25.85;13.70;;;3.20;99.90;;;;;;4990613;28;20173;-75